Klickitat, WA

8:48 AM PDT on June 24, 2017 (GMT -0700)
High Prairie Point | | Change Station

Elev 1506 ft 45.73 °N, 121.22 °W | Updated 14 minutes ago

Clear
Clear
65.5 °F
Feels Like 65.5 °F
N
3.0
Wind Variable Wind from NE
Gusts 7.0 mph

Today
High -- | Low -- °F
--% Chance of Precip.
Yesterday
High -- | Low -- °F
Precip. -- in
Pressure 30.16 in
Visibility 10.0 miles
Clouds Clear
Dew Point 47 °F
Humidity 52%
Rainfall 0.00 in
Snow Depth Not available.
5:15 AM 8:58 PM
New Moon, 0% visible
METAR KDLS 241453Z AUTO 00000KT 10SM CLR 18/07 A3017 RMK AO2 SLP213 T01780072 51009
Pressure 30.16 in
Visibility 10.0 miles
Clouds Clear
Dew Point 47 °F
Humidity 52%
Rainfall 0.00 in
Snow Depth Not available.
5:15 AM 8:58 PM
New Moon, 0% visible
METAR KDLS 241453Z AUTO 00000KT 10SM CLR 18/07 A3017 RMK AO2 SLP213 T01780072 51009

Get Severe Weather Alerts

Thanks for signing up!

Be on the lookout for a verification email in your inbox.

You'll start receiving the daily forecast at 6 AM.

×

10-Day Weather Forecast

Almanac

Astronomy

Jun. 24, 2017 Rise Set
Actual Time
Civil Twilight
Nautical Twilight
Astronomical Twilight
Moon
Length of Visible Light
Length of Day
Tomorrow will be .
, % of the Moon is Illuminated

Today's Extremes

State Highs State Lows

Community

WunderPhotos

Category 6

Welcome to Category 6. This is the collective home for Weather Underground's featured writeups by Dr. Jeff Masters (right), Bob Henson (left), Chris Burt, and other regular contributors.

Nearby

Air Quality

  Air Quality AQ Index Pollutant
Not available.

Snow Depth

Station Depth Elevation

Earthquake Activity

City Distance Mag. Time & Date
Minimum magnitude displayed is 2.5.

Coastal Water Temperatures

Place Temperature

Stations

Nearby Weather Stations

Station Location Temp. Windchill Dew Point Humidity Wind Precip. Elev Updated Type
                   

Watches & Warnings

There are currently no watches in effect.